sensor_id;sensor_type;location;lat;lon;timestamp;P1;durP1;ratioP1;P2;durP2;ratioP2
9436;SDS011;4757;59.334;18.034;2022-12-18T00:01:20;11.53;;;7.70;;
9436;SDS011;4757;59.334;18.034;2022-12-18T00:03:49;13.40;;;7.90;;
9436;SDS011;4757;59.334;18.034;2022-12-18T00:06:18;13.57;;;7.70;;
9436;SDS011;4757;59.334;18.034;2022-12-18T00:08:46;12.73;;;8.60;;
9436;SDS011;4757;59.334;18.034;2022-12-18T00:11:14;13.27;;;8.30;;
9436;SDS011;4757;59.334;18.034;2022-12-18T00:13:44;16.87;;;7.90;;
9436;SDS011;4757;59.334;18.034;2022-12-18T00:16:14;14.37;;;7.70;;
9436;SDS011;4757;59.334;18.034;2022-12-18T00:18:44;10.80;;;7.33;;
9436;SDS011;4757;59.334;18.034;2022-12-18T00:21:12;11.40;;;7.60;;
9436;SDS011;4757;59.334;18.034;2022-12-18T00:23:41;12.33;;;8.20;;
9436;SDS011;4757;59.334;18.034;2022-12-18T00:26:11;12.17;;;6.90;;
9436;SDS011;4757;59.334;18.034;2022-12-18T00:28:42;10.43;;;7.93;;
9436;SDS011;4757;59.334;18.034;2022-12-18T00:31:10;12.40;;;7.70;;
9436;SDS011;4757;59.334;18.034;2022-12-18T00:33:40;12.57;;;7.67;;
9436;SDS011;4757;59.334;18.034;2022-12-18T00:36:12;8.47;;;6.67;;
9436;SDS011;4757;59.334;18.034;2022-12-18T00:38:42;12.53;;;8.00;;
9436;SDS011;4757;59.334;18.034;2022-12-18T00:41:10;11.90;;;8.00;;
9436;SDS011;4757;59.334;18.034;2022-12-18T00:43:39;12.20;;;7.43;;
9436;SDS011;4757;59.334;18.034;2022-12-18T00:46:06;8.63;;;6.87;;
9436;SDS011;4757;59.334;18.034;2022-12-18T00:48:35;14.20;;;8.30;;
9436;SDS011;4757;59.334;18.034;2022-12-18T00:51:02;13.10;;;8.50;;
9436;SDS011;4757;59.334;18.034;2022-12-18T00:53:29;13.77;;;9.00;;
9436;SDS011;4757;59.334;18.034;2022-12-18T00:55:56;11.00;;;8.70;;
9436;SDS011;4757;59.334;18.034;2022-12-18T00:58:23;10.33;;;7.93;;
9436;SDS011;4757;59.334;18.034;2022-12-18T01:00:50;11.20;;;8.17;;
9436;SDS011;4757;59.334;18.034;2022-12-18T01:03:17;11.00;;;7.47;;
9436;SDS011;4757;59.334;18.034;2022-12-18T01:05:44;13.43;;;8.63;;
9436;SDS011;4757;59.334;18.034;2022-12-18T01:08:12;13.37;;;7.70;;
9436;SDS011;4757;59.334;18.034;2022-12-18T01:10:41;12.20;;;7.57;;
9436;SDS011;4757;59.334;18.034;2022-12-18T01:13:08;17.87;;;7.87;;
9436;SDS011;4757;59.334;18.034;2022-12-18T01:15:37;10.50;;;7.77;;
9436;SDS011;4757;59.334;18.034;2022-12-18T01:18:04;15.10;;;8.03;;
9436;SDS011;4757;59.334;18.034;2022-12-18T01:20:31;11.30;;;7.50;;
9436;SDS011;4757;59.334;18.034;2022-12-18T01:22:59;9.90;;;7.40;;
9436;SDS011;4757;59.334;18.034;2022-12-18T01:25:27;18.00;;;7.93;;
9436;SDS011;4757;59.334;18.034;2022-12-18T01:27:54;14.67;;;8.30;;
9436;SDS011;4757;59.334;18.034;2022-12-18T01:30:21;15.23;;;8.93;;
9436;SDS011;4757;59.334;18.034;2022-12-18T01:32:48;12.20;;;8.47;;
9436;SDS011;4757;59.334;18.034;2022-12-18T01:35:15;12.33;;;7.40;;
9436;SDS011;4757;59.334;18.034;2022-12-18T01:37:42;13.63;;;7.70;;
9436;SDS011;4757;59.334;18.034;2022-12-18T01:40:11;13.47;;;9.10;;
9436;SDS011;4757;59.334;18.034;2022-12-18T01:42:38;9.63;;;7.90;;
9436;SDS011;4757;59.334;18.034;2022-12-18T01:47:40;10.67;;;8.63;;
9436;SDS011;4757;59.334;18.034;2022-12-18T01:50:21;14.57;;;8.40;;
9436;SDS011;4757;59.334;18.034;2022-12-18T01:53:03;42.73;;;8.40;;
9436;SDS011;4757;59.334;18.034;2022-12-18T01:55:39;9.90;;;7.60;;
9436;SDS011;4757;59.334;18.034;2022-12-18T01:58:13;11.90;;;7.50;;
9436;SDS011;4757;59.334;18.034;2022-12-18T02:00:40;10.13;;;8.07;;
9436;SDS011;4757;59.334;18.034;2022-12-18T02:03:08;10.67;;;7.23;;
9436;SDS011;4757;59.334;18.034;2022-12-18T02:11:10;9.37;;;7.27;;
9436;SDS011;4757;59.334;18.034;2022-12-18T02:19:32;13.63;;;7.83;;
9436;SDS011;4757;59.334;18.034;2022-12-18T02:28:02;16.63;;;8.60;;
9436;SDS011;4757;59.334;18.034;2022-12-18T02:30:33;13.93;;;7.80;;
9436;SDS011;4757;59.334;18.034;2022-12-18T02:33:05;13.20;;;8.27;;
9436;SDS011;4757;59.334;18.034;2022-12-18T02:35:34;8.80;;;7.10;;
9436;SDS011;4757;59.334;18.034;2022-12-18T02:38:05;12.10;;;7.13;;
9436;SDS011;4757;59.334;18.034;2022-12-18T02:40:33;11.00;;;7.83;;
9436;SDS011;4757;59.334;18.034;2022-12-18T02:43:03;10.33;;;7.37;;
9436;SDS011;4757;59.334;18.034;2022-12-18T02:45:45;11.47;;;7.63;;
9436;SDS011;4757;59.334;18.034;2022-12-18T02:48:15;12.10;;;7.10;;
9436;SDS011;4757;59.334;18.034;2022-12-18T02:50:56;11.57;;;8.13;;
9436;SDS011;4757;59.334;18.034;2022-12-18T02:53:39;9.10;;;6.87;;
9436;SDS011;4757;59.334;18.034;2022-12-18T02:56:12;10.97;;;8.67;;
9436;SDS011;4757;59.334;18.034;2022-12-18T03:04:02;12.67;;;8.73;;
9436;SDS011;4757;59.334;18.034;2022-12-18T03:06:54;10.47;;;7.00;;
9436;SDS011;4757;59.334;18.034;2022-12-18T03:09:37;10.43;;;7.33;;
9436;SDS011;4757;59.334;18.034;2022-12-18T03:12:10;13.17;;;7.00;;
9436;SDS011;4757;59.334;18.034;2022-12-18T03:15:03;8.67;;;7.03;;
9436;SDS011;4757;59.334;18.034;2022-12-18T03:17:36;12.43;;;7.00;;
9436;SDS011;4757;59.334;18.034;2022-12-18T03:20:07;9.00;;;6.60;;
9436;SDS011;4757;59.334;18.034;2022-12-18T03:22:41;9.57;;;6.80;;
9436;SDS011;4757;59.334;18.034;2022-12-18T03:25:13;8.83;;;6.90;;
9436;SDS011;4757;59.334;18.034;2022-12-18T03:27:42;11.03;;;7.80;;
9436;SDS011;4757;59.334;18.034;2022-12-18T03:30:13;10.13;;;7.40;;
9436;SDS011;4757;59.334;18.034;2022-12-18T03:35:33;12.70;;;7.20;;
9436;SDS011;4757;59.334;18.034;2022-12-18T03:38:04;12.77;;;6.63;;
9436;SDS011;4757;59.334;18.034;2022-12-18T03:40:40;9.67;;;7.40;;
9436;SDS011;4757;59.334;18.034;2022-12-18T03:43:47;9.60;;;6.60;;
9436;SDS011;4757;59.334;18.034;2022-12-18T03:49:28;8.57;;;5.97;;
9436;SDS011;4757;59.334;18.034;2022-12-18T03:52:20;9.93;;;6.70;;
9436;SDS011;4757;59.334;18.034;2022-12-18T03:54:49;10.87;;;6.67;;
9436;SDS011;4757;59.334;18.034;2022-12-18T03:57:21;10.97;;;7.03;;
9436;SDS011;4757;59.334;18.034;2022-12-18T03:59:58;11.87;;;7.93;;
9436;SDS011;4757;59.334;18.034;2022-12-18T04:02:37;10.70;;;7.73;;
9436;SDS011;4757;59.334;18.034;2022-12-18T04:05:09;8.67;;;6.37;;
9436;SDS011;4757;59.334;18.034;2022-12-18T04:07:37;10.53;;;7.00;;
9436;SDS011;4757;59.334;18.034;2022-12-18T04:10:06;8.90;;;6.83;;
9436;SDS011;4757;59.334;18.034;2022-12-18T04:12:36;10.43;;;6.63;;
9436;SDS011;4757;59.334;18.034;2022-12-18T04:15:05;15.30;;;6.63;;
9436;SDS011;4757;59.334;18.034;2022-12-18T04:17:32;8.80;;;5.83;;
9436;SDS011;4757;59.334;18.034;2022-12-18T04:19:59;9.10;;;6.00;;
9436;SDS011;4757;59.334;18.034;2022-12-18T04:22:26;10.77;;;7.07;;
9436;SDS011;4757;59.334;18.034;2022-12-18T04:24:54;11.07;;;7.17;;
9436;SDS011;4757;59.334;18.034;2022-12-18T04:27:21;8.47;;;7.37;;
9436;SDS011;4757;59.334;18.034;2022-12-18T04:29:48;10.50;;;7.57;;
9436;SDS011;4757;59.334;18.034;2022-12-18T04:32:15;12.23;;;6.37;;
9436;SDS011;4757;59.334;18.034;2022-12-18T04:34:43;9.33;;;6.37;;
9436;SDS011;4757;59.334;18.034;2022-12-18T04:37:10;9.70;;;7.07;;
9436;SDS011;4757;59.334;18.034;2022-12-18T04:39:37;12.50;;;7.10;;
9436;SDS011;4757;59.334;18.034;2022-12-18T04:42:06;9.33;;;6.87;;
9436;SDS011;4757;59.334;18.034;2022-12-18T04:44:33;9.93;;;6.50;;
9436;SDS011;4757;59.334;18.034;2022-12-18T04:47:01;10.93;;;6.87;;
9436;SDS011;4757;59.334;18.034;2022-12-18T04:49:29;13.10;;;6.87;;
9436;SDS011;4757;59.334;18.034;2022-12-18T04:51:55;8.27;;;6.13;;
9436;SDS011;4757;59.334;18.034;2022-12-18T04:54:22;11.73;;;7.27;;
9436;SDS011;4757;59.334;18.034;2022-12-18T04:56:49;12.73;;;6.93;;
9436;SDS011;4757;59.334;18.034;2022-12-18T04:59:17;7.90;;;6.30;;
9436;SDS011;4757;59.334;18.034;2022-12-18T05:01:44;9.03;;;7.20;;
9436;SDS011;4757;59.334;18.034;2022-12-18T05:04:12;9.13;;;6.60;;
9436;SDS011;4757;59.334;18.034;2022-12-18T05:06:39;10.37;;;6.40;;
9436;SDS011;4757;59.334;18.034;2022-12-18T05:09:06;8.87;;;6.50;;
9436;SDS011;4757;59.334;18.034;2022-12-18T05:11:33;8.83;;;6.03;;
9436;SDS011;4757;59.334;18.034;2022-12-18T05:14:01;7.37;;;6.00;;
9436;SDS011;4757;59.334;18.034;2022-12-18T05:16:29;10.77;;;6.57;;
9436;SDS011;4757;59.334;18.034;2022-12-18T05:18:56;12.90;;;6.30;;
9436;SDS011;4757;59.334;18.034;2022-12-18T05:21:23;9.00;;;6.13;;
9436;SDS011;4757;59.334;18.034;2022-12-18T05:23:50;10.63;;;6.27;;
9436;SDS011;4757;59.334;18.034;2022-12-18T05:26:17;9.80;;;6.27;;
9436;SDS011;4757;59.334;18.034;2022-12-18T05:28:44;10.23;;;6.70;;
9436;SDS011;4757;59.334;18.034;2022-12-18T05:31:12;9.67;;;6.23;;
9436;SDS011;4757;59.334;18.034;2022-12-18T05:33:40;15.10;;;7.33;;
9436;SDS011;4757;59.334;18.034;2022-12-18T05:36:09;11.30;;;7.03;;
9436;SDS011;4757;59.334;18.034;2022-12-18T05:38:36;7.80;;;6.23;;
9436;SDS011;4757;59.334;18.034;2022-12-18T05:41:05;13.97;;;7.63;;
9436;SDS011;4757;59.334;18.034;2022-12-18T05:43:34;10.60;;;7.30;;
9436;SDS011;4757;59.334;18.034;2022-12-18T05:46:06;10.53;;;7.00;;
9436;SDS011;4757;59.334;18.034;2022-12-18T05:48:37;7.60;;;6.27;;
9436;SDS011;4757;59.334;18.034;2022-12-18T05:51:05;8.60;;;6.07;;
9436;SDS011;4757;59.334;18.034;2022-12-18T05:53:33;9.60;;;6.63;;
9436;SDS011;4757;59.334;18.034;2022-12-18T05:56:03;9.17;;;5.50;;
9436;SDS011;4757;59.334;18.034;2022-12-18T05:58:33;8.07;;;6.17;;
9436;SDS011;4757;59.334;18.034;2022-12-18T06:01:10;9.47;;;6.63;;
9436;SDS011;4757;59.334;18.034;2022-12-18T06:03:39;13.10;;;6.47;;
9436;SDS011;4757;59.334;18.034;2022-12-18T06:06:17;9.00;;;6.13;;
9436;SDS011;4757;59.334;18.034;2022-12-18T06:08:46;9.90;;;6.43;;
9436;SDS011;4757;59.334;18.034;2022-12-18T06:11:15;9.47;;;7.07;;
9436;SDS011;4757;59.334;18.034;2022-12-18T06:13:44;10.27;;;6.20;;
9436;SDS011;4757;59.334;18.034;2022-12-18T06:16:11;10.30;;;6.53;;
9436;SDS011;4757;59.334;18.034;2022-12-18T06:18:38;9.30;;;5.47;;
9436;SDS011;4757;59.334;18.034;2022-12-18T06:21:06;9.60;;;6.17;;
9436;SDS011;4757;59.334;18.034;2022-12-18T06:23:33;12.07;;;6.87;;
9436;SDS011;4757;59.334;18.034;2022-12-18T06:26:06;8.00;;;5.80;;
9436;SDS011;4757;59.334;18.034;2022-12-18T06:28:34;10.40;;;6.13;;
9436;SDS011;4757;59.334;18.034;2022-12-18T06:31:02;8.93;;;6.70;;
9436;SDS011;4757;59.334;18.034;2022-12-18T06:33:30;9.13;;;6.20;;
9436;SDS011;4757;59.334;18.034;2022-12-18T06:36:02;10.83;;;5.73;;
9436;SDS011;4757;59.334;18.034;2022-12-18T06:38:32;10.77;;;6.83;;
9436;SDS011;4757;59.334;18.034;2022-12-18T06:41:00;13.47;;;6.87;;
9436;SDS011;4757;59.334;18.034;2022-12-18T06:43:28;10.07;;;6.97;;
9436;SDS011;4757;59.334;18.034;2022-12-18T06:45:59;7.93;;;5.37;;
9436;SDS011;4757;59.334;18.034;2022-12-18T06:48:27;9.47;;;5.43;;
9436;SDS011;4757;59.334;18.034;2022-12-18T06:50:55;10.87;;;6.33;;
9436;SDS011;4757;59.334;18.034;2022-12-18T06:53:22;9.93;;;5.53;;
9436;SDS011;4757;59.334;18.034;2022-12-18T06:55:49;10.63;;;6.43;;
9436;SDS011;4757;59.334;18.034;2022-12-18T06:58:16;9.03;;;6.67;;
9436;SDS011;4757;59.334;18.034;2022-12-18T07:00:43;12.53;;;5.80;;
9436;SDS011;4757;59.334;18.034;2022-12-18T07:03:10;10.13;;;6.50;;
9436;SDS011;4757;59.334;18.034;2022-12-18T07:05:41;10.67;;;6.20;;
9436;SDS011;4757;59.334;18.034;2022-12-18T07:08:08;10.83;;;6.57;;
9436;SDS011;4757;59.334;18.034;2022-12-18T07:10:45;9.83;;;5.83;;
9436;SDS011;4757;59.334;18.034;2022-12-18T07:13:16;13.60;;;6.80;;
9436;SDS011;4757;59.334;18.034;2022-12-18T07:15:44;7.57;;;5.67;;
9436;SDS011;4757;59.334;18.034;2022-12-18T07:18:11;11.13;;;6.57;;
9436;SDS011;4757;59.334;18.034;2022-12-18T07:20:38;10.37;;;6.27;;
9436;SDS011;4757;59.334;18.034;2022-12-18T07:23:05;9.90;;;6.57;;
9436;SDS011;4757;59.334;18.034;2022-12-18T07:25:33;11.07;;;6.83;;
9436;SDS011;4757;59.334;18.034;2022-12-18T07:28:01;10.57;;;7.77;;
9436;SDS011;4757;59.334;18.034;2022-12-18T07:30:28;9.73;;;7.63;;
9436;SDS011;4757;59.334;18.034;2022-12-18T07:32:55;10.40;;;6.80;;
9436;SDS011;4757;59.334;18.034;2022-12-18T07:35:22;11.37;;;7.20;;
9436;SDS011;4757;59.334;18.034;2022-12-18T07:37:50;11.13;;;7.73;;
9436;SDS011;4757;59.334;18.034;2022-12-18T07:40:17;10.83;;;7.30;;
9436;SDS011;4757;59.334;18.034;2022-12-18T07:42:44;11.30;;;6.97;;
9436;SDS011;4757;59.334;18.034;2022-12-18T07:45:12;10.73;;;7.47;;
9436;SDS011;4757;59.334;18.034;2022-12-18T07:47:39;10.10;;;6.47;;
9436;SDS011;4757;59.334;18.034;2022-12-18T07:50:07;11.23;;;6.67;;
9436;SDS011;4757;59.334;18.034;2022-12-18T07:52:35;15.83;;;7.70;;
9436;SDS011;4757;59.334;18.034;2022-12-18T07:55:02;9.50;;;7.17;;
9436;SDS011;4757;59.334;18.034;2022-12-18T07:57:29;10.80;;;7.20;;
9436;SDS011;4757;59.334;18.034;2022-12-18T08:00:16;9.93;;;6.97;;
9436;SDS011;4757;59.334;18.034;2022-12-18T08:02:43;11.63;;;7.83;;
9436;SDS011;4757;59.334;18.034;2022-12-18T08:05:10;10.73;;;7.33;;
9436;SDS011;4757;59.334;18.034;2022-12-18T08:07:37;11.87;;;7.40;;
9436;SDS011;4757;59.334;18.034;2022-12-18T08:10:05;10.83;;;7.47;;
9436;SDS011;4757;59.334;18.034;2022-12-18T08:12:32;11.33;;;7.77;;
9436;SDS011;4757;59.334;18.034;2022-12-18T08:15:00;12.23;;;7.53;;
9436;SDS011;4757;59.334;18.034;2022-12-18T08:17:27;10.97;;;7.30;;
9436;SDS011;4757;59.334;18.034;2022-12-18T08:19:54;11.37;;;7.17;;
9436;SDS011;4757;59.334;18.034;2022-12-18T08:22:22;14.80;;;7.77;;
9436;SDS011;4757;59.334;18.034;2022-12-18T08:24:49;10.50;;;7.40;;
9436;SDS011;4757;59.334;18.034;2022-12-18T08:27:16;11.50;;;7.70;;
9436;SDS011;4757;59.334;18.034;2022-12-18T08:29:55;11.43;;;7.17;;
9436;SDS011;4757;59.334;18.034;2022-12-18T08:32:23;11.47;;;7.53;;
9436;SDS011;4757;59.334;18.034;2022-12-18T08:34:53;11.70;;;7.80;;
9436;SDS011;4757;59.334;18.034;2022-12-18T08:37:20;11.50;;;7.80;;
9436;SDS011;4757;59.334;18.034;2022-12-18T08:39:47;15.67;;;8.20;;
9436;SDS011;4757;59.334;18.034;2022-12-18T08:42:14;11.70;;;8.40;;
9436;SDS011;4757;59.334;18.034;2022-12-18T08:45:00;14.67;;;8.67;;
9436;SDS011;4757;59.334;18.034;2022-12-18T08:47:27;11.73;;;7.23;;
9436;SDS011;4757;59.334;18.034;2022-12-18T08:49:54;13.50;;;8.50;;
9436;SDS011;4757;59.334;18.034;2022-12-18T08:52:21;15.87;;;7.57;;
9436;SDS011;4757;59.334;18.034;2022-12-18T08:54:48;12.07;;;6.80;;
9436;SDS011;4757;59.334;18.034;2022-12-18T08:57:16;12.80;;;8.20;;
9436;SDS011;4757;59.334;18.034;2022-12-18T08:59:43;12.57;;;7.77;;
9436;SDS011;4757;59.334;18.034;2022-12-18T09:02:10;11.50;;;7.00;;
9436;SDS011;4757;59.334;18.034;2022-12-18T09:04:38;11.60;;;7.77;;
9436;SDS011;4757;59.334;18.034;2022-12-18T09:07:06;12.40;;;7.93;;
9436;SDS011;4757;59.334;18.034;2022-12-18T09:09:33;10.43;;;8.17;;
9436;SDS011;4757;59.334;18.034;2022-12-18T09:12:00;11.67;;;7.60;;
9436;SDS011;4757;59.334;18.034;2022-12-18T09:14:27;10.67;;;7.27;;
9436;SDS011;4757;59.334;18.034;2022-12-18T09:16:54;8.90;;;7.17;;
9436;SDS011;4757;59.334;18.034;2022-12-18T09:19:21;12.73;;;7.10;;
9436;SDS011;4757;59.334;18.034;2022-12-18T09:21:48;11.47;;;7.60;;
9436;SDS011;4757;59.334;18.034;2022-12-18T09:24:16;9.73;;;6.57;;
9436;SDS011;4757;59.334;18.034;2022-12-18T09:26:43;10.83;;;7.80;;
9436;SDS011;4757;59.334;18.034;2022-12-18T09:29:13;9.63;;;7.53;;
9436;SDS011;4757;59.334;18.034;2022-12-18T09:31:44;11.97;;;7.17;;
9436;SDS011;4757;59.334;18.034;2022-12-18T09:34:12;12.73;;;7.17;;
9436;SDS011;4757;59.334;18.034;2022-12-18T09:36:39;11.67;;;7.37;;
9436;SDS011;4757;59.334;18.034;2022-12-18T09:39:06;11.20;;;7.40;;
9436;SDS011;4757;59.334;18.034;2022-12-18T09:41:39;13.00;;;7.77;;
9436;SDS011;4757;59.334;18.034;2022-12-18T09:44:21;10.17;;;7.53;;
9436;SDS011;4757;59.334;18.034;2022-12-18T09:47:13;8.93;;;6.97;;
9436;SDS011;4757;59.334;18.034;2022-12-18T09:49:49;12.20;;;7.47;;
9436;SDS011;4757;59.334;18.034;2022-12-18T09:55:00;8.40;;;6.60;;
9436;SDS011;4757;59.334;18.034;2022-12-18T09:57:34;10.37;;;6.03;;
9436;SDS011;4757;59.334;18.034;2022-12-18T10:00:16;10.73;;;7.73;;
9436;SDS011;4757;59.334;18.034;2022-12-18T10:02:47;14.13;;;8.63;;
9436;SDS011;4757;59.334;18.034;2022-12-18T10:08:13;10.67;;;7.00;;
9436;SDS011;4757;59.334;18.034;2022-12-18T10:13:19;8.97;;;7.10;;
9436;SDS011;4757;59.334;18.034;2022-12-18T10:24:37;12.83;;;7.33;;
9436;SDS011;4757;59.334;18.034;2022-12-18T10:27:16;10.90;;;7.03;;
9436;SDS011;4757;59.334;18.034;2022-12-18T10:29:45;9.33;;;7.03;;
9436;SDS011;4757;59.334;18.034;2022-12-18T10:32:19;10.70;;;7.73;;
9436;SDS011;4757;59.334;18.034;2022-12-18T10:34:52;14.07;;;8.37;;
9436;SDS011;4757;59.334;18.034;2022-12-18T10:37:26;10.10;;;7.93;;
9436;SDS011;4757;59.334;18.034;2022-12-18T10:42:35;12.73;;;7.40;;
9436;SDS011;4757;59.334;18.034;2022-12-18T10:45:23;8.77;;;6.60;;
9436;SDS011;4757;59.334;18.034;2022-12-18T10:47:49;12.90;;;6.90;;
9436;SDS011;4757;59.334;18.034;2022-12-18T10:50:24;9.13;;;6.67;;
9436;SDS011;4757;59.334;18.034;2022-12-18T10:53:21;8.70;;;6.73;;
9436;SDS011;4757;59.334;18.034;2022-12-18T10:55:51;13.93;;;7.77;;
9436;SDS011;4757;59.334;18.034;2022-12-18T11:01:13;11.33;;;7.07;;
9436;SDS011;4757;59.334;18.034;2022-12-18T11:03:58;14.00;;;7.33;;
9436;SDS011;4757;59.334;18.034;2022-12-18T11:06:28;9.03;;;7.43;;
9436;SDS011;4757;59.334;18.034;2022-12-18T11:09:04;11.00;;;7.13;;
9436;SDS011;4757;59.334;18.034;2022-12-18T11:11:51;12.17;;;7.10;;
9436;SDS011;4757;59.334;18.034;2022-12-18T11:14:24;9.63;;;6.70;;
9436;SDS011;4757;59.334;18.034;2022-12-18T11:16:52;13.37;;;7.20;;
9436;SDS011;4757;59.334;18.034;2022-12-18T11:19:40;11.17;;;6.93;;
9436;SDS011;4757;59.334;18.034;2022-12-18T11:22:24;9.87;;;7.20;;
9436;SDS011;4757;59.334;18.034;2022-12-18T11:27:41;8.80;;;6.90;;
9436;SDS011;4757;59.334;18.034;2022-12-18T11:33:10;10.87;;;7.00;;
9436;SDS011;4757;59.334;18.034;2022-12-18T11:35:58;13.43;;;7.90;;
9436;SDS011;4757;59.334;18.034;2022-12-18T11:38:31;10.43;;;6.60;;
9436;SDS011;4757;59.334;18.034;2022-12-18T11:44:13;11.23;;;7.27;;
9436;SDS011;4757;59.334;18.034;2022-12-18T11:46:47;9.43;;;6.23;;
9436;SDS011;4757;59.334;18.034;2022-12-18T11:49:24;8.23;;;6.17;;
9436;SDS011;4757;59.334;18.034;2022-12-18T11:54:50;7.90;;;6.60;;
9436;SDS011;4757;59.334;18.034;2022-12-18T11:57:34;8.80;;;6.10;;
9436;SDS011;4757;59.334;18.034;2022-12-18T12:00:28;11.37;;;5.93;;
9436;SDS011;4757;59.334;18.034;2022-12-18T12:11:27;10.63;;;6.80;;
9436;SDS011;4757;59.334;18.034;2022-12-18T12:25:49;8.57;;;6.20;;
9436;SDS011;4757;59.334;18.034;2022-12-18T12:28:46;10.57;;;6.73;;
9436;SDS011;4757;59.334;18.034;2022-12-18T12:31:40;9.57;;;5.93;;
9436;SDS011;4757;59.334;18.034;2022-12-18T12:34:23;9.97;;;6.93;;
9436;SDS011;4757;59.334;18.034;2022-12-18T12:39:35;8.87;;;5.93;;
9436;SDS011;4757;59.334;18.034;2022-12-18T12:42:05;11.37;;;6.33;;
9436;SDS011;4757;59.334;18.034;2022-12-18T12:45:26;11.63;;;7.60;;
9436;SDS011;4757;59.334;18.034;2022-12-18T12:48:00;10.40;;;6.47;;
9436;SDS011;4757;59.334;18.034;2022-12-18T12:50:29;11.23;;;5.50;;
9436;SDS011;4757;59.334;18.034;2022-12-18T12:53:01;9.93;;;5.63;;
9436;SDS011;4757;59.334;18.034;2022-12-18T12:55:34;8.50;;;6.50;;
9436;SDS011;4757;59.334;18.034;2022-12-18T13:01:01;9.37;;;5.87;;
9436;SDS011;4757;59.334;18.034;2022-12-18T13:09:09;10.27;;;6.60;;
9436;SDS011;4757;59.334;18.034;2022-12-18T13:11:46;8.53;;;6.10;;
9436;SDS011;4757;59.334;18.034;2022-12-18T13:19:48;13.33;;;6.10;;
9436;SDS011;4757;59.334;18.034;2022-12-18T13:22:37;9.53;;;4.93;;
9436;SDS011;4757;59.334;18.034;2022-12-18T13:28:00;9.90;;;6.10;;
9436;SDS011;4757;59.334;18.034;2022-12-18T13:30:57;14.23;;;5.90;;
9436;SDS011;4757;59.334;18.034;2022-12-18T13:38:39;8.40;;;5.50;;
9436;SDS011;4757;59.334;18.034;2022-12-18T13:43:42;5.60;;;4.17;;
9436;SDS011;4757;59.334;18.034;2022-12-18T13:46:24;7.80;;;4.57;;
9436;SDS011;4757;59.334;18.034;2022-12-18T13:49:05;6.87;;;4.40;;
9436;SDS011;4757;59.334;18.034;2022-12-18T13:51:47;7.90;;;4.83;;
9436;SDS011;4757;59.334;18.034;2022-12-18T13:54:30;8.90;;;4.73;;
9436;SDS011;4757;59.334;18.034;2022-12-18T13:57:05;8.17;;;4.97;;
9436;SDS011;4757;59.334;18.034;2022-12-18T13:59:51;13.53;;;6.10;;
9436;SDS011;4757;59.334;18.034;2022-12-18T14:02:27;7.67;;;4.80;;
9436;SDS011;4757;59.334;18.034;2022-12-18T14:04:56;8.40;;;5.10;;
9436;SDS011;4757;59.334;18.034;2022-12-18T14:07:26;7.57;;;5.17;;
9436;SDS011;4757;59.334;18.034;2022-12-18T14:10:03;6.73;;;5.30;;
9436;SDS011;4757;59.334;18.034;2022-12-18T14:13:03;9.20;;;5.23;;
9436;SDS011;4757;59.334;18.034;2022-12-18T14:15:40;10.47;;;5.83;;
9436;SDS011;4757;59.334;18.034;2022-12-18T14:21:04;8.40;;;4.70;;
9436;SDS011;4757;59.334;18.034;2022-12-18T14:23:38;10.27;;;4.50;;
9436;SDS011;4757;59.334;18.034;2022-12-18T14:26:25;9.70;;;5.93;;
9436;SDS011;4757;59.334;18.034;2022-12-18T14:28:56;7.57;;;4.67;;
9436;SDS011;4757;59.334;18.034;2022-12-18T14:31:25;7.47;;;4.20;;
9436;SDS011;4757;59.334;18.034;2022-12-18T14:33:57;8.43;;;5.13;;
9436;SDS011;4757;59.334;18.034;2022-12-18T14:36:27;7.67;;;4.67;;
9436;SDS011;4757;59.334;18.034;2022-12-18T14:38:58;7.93;;;4.60;;
9436;SDS011;4757;59.334;18.034;2022-12-18T14:41:25;10.80;;;4.80;;
9436;SDS011;4757;59.334;18.034;2022-12-18T14:43:54;8.63;;;5.03;;
9436;SDS011;4757;59.334;18.034;2022-12-18T14:46:35;7.80;;;5.13;;
9436;SDS011;4757;59.334;18.034;2022-12-18T14:49:17;7.87;;;3.90;;
9436;SDS011;4757;59.334;18.034;2022-12-18T14:51:53;7.30;;;4.40;;
9436;SDS011;4757;59.334;18.034;2022-12-18T14:54:29;7.73;;;4.60;;
9436;SDS011;4757;59.334;18.034;2022-12-18T14:57:02;7.73;;;4.20;;
9436;SDS011;4757;59.334;18.034;2022-12-18T14:59:50;9.33;;;4.07;;
9436;SDS011;4757;59.334;18.034;2022-12-18T15:02:23;9.03;;;4.20;;
9436;SDS011;4757;59.334;18.034;2022-12-18T15:05:01;8.60;;;4.10;;
9436;SDS011;4757;59.334;18.034;2022-12-18T15:07:52;7.57;;;4.20;;
9436;SDS011;4757;59.334;18.034;2022-12-18T15:20:48;8.03;;;3.97;;
9436;SDS011;4757;59.334;18.034;2022-12-18T15:23:29;7.50;;;3.93;;
9436;SDS011;4757;59.334;18.034;2022-12-18T15:26:08;6.80;;;3.47;;
9436;SDS011;4757;59.334;18.034;2022-12-18T15:36:22;7.43;;;4.90;;
9436;SDS011;4757;59.334;18.034;2022-12-18T15:38:52;12.47;;;6.00;;
9436;SDS011;4757;59.334;18.034;2022-12-18T15:41:31;8.83;;;4.40;;
9436;SDS011;4757;59.334;18.034;2022-12-18T15:44:02;4.63;;;2.90;;
9436;SDS011;4757;59.334;18.034;2022-12-18T15:46:47;7.90;;;3.00;;
9436;SDS011;4757;59.334;18.034;2022-12-18T15:49:14;9.23;;;4.23;;
9436;SDS011;4757;59.334;18.034;2022-12-18T15:51:41;5.30;;;2.83;;
9436;SDS011;4757;59.334;18.034;2022-12-18T15:54:12;4.40;;;2.77;;
9436;SDS011;4757;59.334;18.034;2022-12-18T15:56:42;9.37;;;3.20;;
9436;SDS011;4757;59.334;18.034;2022-12-18T15:59:29;6.07;;;3.03;;
9436;SDS011;4757;59.334;18.034;2022-12-18T16:01:57;6.40;;;3.77;;
9436;SDS011;4757;59.334;18.034;2022-12-18T16:04:24;8.20;;;3.47;;
9436;SDS011;4757;59.334;18.034;2022-12-18T16:06:51;7.60;;;3.60;;
9436;SDS011;4757;59.334;18.034;2022-12-18T16:09:39;8.93;;;3.90;;
9436;SDS011;4757;59.334;18.034;2022-12-18T16:12:06;8.27;;;3.53;;
9436;SDS011;4757;59.334;18.034;2022-12-18T16:14:40;7.40;;;2.73;;
9436;SDS011;4757;59.334;18.034;2022-12-18T16:17:09;4.60;;;2.73;;
9436;SDS011;4757;59.334;18.034;2022-12-18T16:19:37;9.23;;;2.93;;
9436;SDS011;4757;59.334;18.034;2022-12-18T16:22:05;6.07;;;2.80;;
9436;SDS011;4757;59.334;18.034;2022-12-18T16:24:33;6.37;;;2.90;;
9436;SDS011;4757;59.334;18.034;2022-12-18T16:27:02;8.77;;;3.00;;
9436;SDS011;4757;59.334;18.034;2022-12-18T16:29:30;5.33;;;3.07;;
9436;SDS011;4757;59.334;18.034;2022-12-18T16:31:58;5.40;;;2.57;;
9436;SDS011;4757;59.334;18.034;2022-12-18T16:34:27;9.50;;;2.80;;
9436;SDS011;4757;59.334;18.034;2022-12-18T16:37:05;9.63;;;2.93;;
9436;SDS011;4757;59.334;18.034;2022-12-18T16:39:33;3.77;;;2.10;;
9436;SDS011;4757;59.334;18.034;2022-12-18T16:42:02;8.50;;;2.73;;
9436;SDS011;4757;59.334;18.034;2022-12-18T16:44:36;3.83;;;2.27;;
9436;SDS011;4757;59.334;18.034;2022-12-18T16:47:05;5.10;;;2.33;;
9436;SDS011;4757;59.334;18.034;2022-12-18T16:49:35;6.57;;;2.60;;
9436;SDS011;4757;59.334;18.034;2022-12-18T16:52:03;7.50;;;2.80;;
9436;SDS011;4757;59.334;18.034;2022-12-18T16:54:34;5.60;;;2.60;;
9436;SDS011;4757;59.334;18.034;2022-12-18T16:57:02;5.60;;;1.93;;
9436;SDS011;4757;59.334;18.034;2022-12-18T16:59:30;6.67;;;2.73;;
9436;SDS011;4757;59.334;18.034;2022-12-18T17:01:58;5.80;;;3.30;;
9436;SDS011;4757;59.334;18.034;2022-12-18T17:04:25;2.93;;;2.10;;
9436;SDS011;4757;59.334;18.034;2022-12-18T17:06:52;5.17;;;2.60;;
9436;SDS011;4757;59.334;18.034;2022-12-18T17:09:20;4.37;;;2.17;;
9436;SDS011;4757;59.334;18.034;2022-12-18T17:11:51;7.37;;;2.10;;
9436;SDS011;4757;59.334;18.034;2022-12-18T17:14:20;9.37;;;3.20;;
9436;SDS011;4757;59.334;18.034;2022-12-18T17:16:48;4.07;;;2.23;;
9436;SDS011;4757;59.334;18.034;2022-12-18T17:19:35;7.20;;;2.97;;
9436;SDS011;4757;59.334;18.034;2022-12-18T17:22:02;5.27;;;2.73;;
9436;SDS011;4757;59.334;18.034;2022-12-18T17:24:30;8.73;;;3.77;;
9436;SDS011;4757;59.334;18.034;2022-12-18T17:27:00;6.87;;;2.60;;
9436;SDS011;4757;59.334;18.034;2022-12-18T17:29:29;7.83;;;3.67;;
9436;SDS011;4757;59.334;18.034;2022-12-18T17:31:56;3.73;;;2.40;;
9436;SDS011;4757;59.334;18.034;2022-12-18T17:34:25;5.33;;;2.70;;